createdAt,value
2023-04-10T00:02:24.815Z,99.90
2023-04-10T00:04:51.820Z,99.90
2023-04-10T00:07:18.757Z,99.90
2023-04-10T00:09:45.605Z,99.90
2023-04-10T00:12:12.476Z,99.90
2023-04-10T00:14:39.209Z,99.90
2023-04-10T00:17:06.207Z,99.90
2023-04-10T00:19:33.225Z,99.90
2023-04-10T00:22:00.010Z,99.90
2023-04-10T00:24:26.761Z,99.90
2023-04-10T00:26:53.475Z,99.90
2023-04-10T00:29:20.346Z,99.90
2023-04-10T00:31:47.173Z,99.90
2023-04-10T00:34:14.245Z,99.90
2023-04-10T00:36:41.171Z,99.90
2023-04-10T00:39:09.451Z,99.90
2023-04-10T00:41:36.250Z,99.90
2023-04-10T00:44:03.195Z,99.90
2023-04-10T00:46:31.478Z,99.90
2023-04-10T00:48:58.434Z,99.90
2023-04-10T00:51:26.498Z,99.90
2023-04-10T00:53:56.755Z,99.90
2023-04-10T00:56:25.461Z,99.90
2023-04-10T00:58:52.227Z,99.90
2023-04-10T01:01:19.214Z,99.90
2023-04-10T01:03:46.222Z,99.90
2023-04-10T01:06:43.862Z,99.90
2023-04-10T01:09:25.918Z,99.90
2023-04-10T01:12:07.948Z,99.90
2023-04-10T01:14:56.756Z,99.90
2023-04-10T01:17:37.157Z,99.90
2023-04-10T01:20:23.648Z,99.90
2023-04-10T01:23:12.274Z,99.90
2023-04-10T01:26:11.665Z,99.90
2023-04-10T01:28:41.383Z,99.90
2023-04-10T01:31:12.321Z,99.90
2023-04-10T01:33:45.837Z,99.90
2023-04-10T01:36:18.214Z,99.90
2023-04-10T01:38:46.541Z,99.90
2023-04-10T01:41:14.618Z,99.90
2023-04-10T01:43:42.908Z,99.90
2023-04-10T01:46:11.934Z,99.90
2023-04-10T01:48:38.920Z,99.90
2023-04-10T01:51:07.759Z,99.90
2023-04-10T01:53:36.372Z,99.90
2023-04-10T01:56:04.593Z,99.90
2023-04-10T01:58:38.822Z,99.90
2023-04-10T02:01:06.590Z,99.90
2023-04-10T02:03:33.499Z,99.90
2023-04-10T02:06:31.969Z,99.90
2023-04-10T02:09:22.029Z,99.90
2023-04-10T02:11:55.971Z,99.90
2023-04-10T02:14:24.993Z,99.90
2023-04-10T02:16:54.787Z,99.90
2023-04-10T02:19:24.826Z,99.90
2023-04-10T02:21:53.559Z,99.90
2023-04-10T02:24:21.154Z,99.90
2023-04-10T02:26:51.131Z,99.90
2023-04-10T02:29:18.603Z,99.90
2023-04-10T02:31:47.388Z,99.90
2023-04-10T02:34:14.397Z,99.90
2023-04-10T02:36:41.153Z,99.90
2023-04-10T02:39:09.641Z,99.90
2023-04-10T02:41:46.417Z,99.90
2023-04-10T02:44:14.137Z,99.90
2023-04-10T02:46:41.938Z,99.90
2023-04-10T02:49:08.965Z,99.90
2023-04-10T02:51:36.651Z,99.90
2023-04-10T02:54:04.512Z,99.90
2023-04-10T02:56:35.743Z,99.90
2023-04-10T02:59:02.633Z,99.90
2023-04-10T03:01:31.087Z,99.90
2023-04-10T03:03:58.908Z,99.90
2023-04-10T03:06:32.367Z,99.90
2023-04-10T03:08:59.206Z,99.90
2023-04-10T03:11:27.282Z,99.90
2023-04-10T03:13:54.269Z,99.90
2023-04-10T03:16:21.438Z,99.90
2023-04-10T03:18:48.586Z,99.90
2023-04-10T03:21:15.917Z,99.90
2023-04-10T03:23:42.831Z,99.90
2023-04-10T03:26:10.649Z,99.90
2023-04-10T03:28:39.670Z,99.90
2023-04-10T03:31:06.873Z,99.90
2023-04-10T03:33:35.924Z,99.90
2023-04-10T03:36:03.786Z,99.90
2023-04-10T03:38:30.671Z,99.90
2023-04-10T03:40:57.381Z,99.90
2023-04-10T03:43:26.472Z,99.90
2023-04-10T03:45:53.348Z,99.90
2023-04-10T03:48:21.121Z,99.90
2023-04-10T03:50:48.003Z,99.90
2023-04-10T03:53:17.113Z,99.90
2023-04-10T03:55:44.753Z,99.90
2023-04-10T03:58:13.103Z,99.90
2023-04-10T04:00:40.319Z,99.90
2023-04-10T04:03:22.348Z,99.90
2023-04-10T04:06:01.394Z,99.90
2023-04-10T04:08:31.047Z,99.90
2023-04-10T04:11:18.085Z,99.90
2023-04-10T04:14:05.201Z,99.90
2023-04-10T04:16:38.036Z,99.90
2023-04-10T04:19:27.836Z,99.90
2023-04-10T04:22:08.988Z,99.90
2023-04-10T04:24:54.425Z,99.90
2023-04-10T04:27:44.212Z,99.90
2023-04-10T04:30:29.653Z,99.90
2023-04-10T04:33:15.032Z,99.90
2023-04-10T04:35:50.972Z,99.90
2023-04-10T04:38:40.864Z,99.90
2023-04-10T04:41:32.468Z,99.90
2023-04-10T04:44:19.565Z,99.90
2023-04-10T04:47:04.306Z,99.90
2023-04-10T04:49:51.348Z,99.90
2023-04-10T04:52:30.273Z,99.90
2023-04-10T04:55:17.414Z,99.90
2023-04-10T04:57:54.496Z,99.90
2023-04-10T05:00:40.968Z,99.90
2023-04-10T05:03:20.047Z,99.90
2023-04-10T05:05:59.386Z,99.90
2023-04-10T05:08:48.199Z,99.90
2023-04-10T05:11:31.071Z,99.90
2023-04-10T05:14:16.053Z,99.90
2023-04-10T05:16:58.381Z,99.90
2023-04-10T05:19:43.491Z,99.90
2023-04-10T05:22:18.094Z,99.90
2023-04-10T05:24:55.348Z,99.90
2023-04-10T05:27:30.012Z,99.90
2023-04-10T05:30:15.722Z,99.90
2023-04-10T05:33:02.782Z,99.90
2023-04-10T05:35:35.581Z,99.90
2023-04-10T05:38:11.888Z,99.90
2023-04-10T05:40:45.992Z,99.90
2023-04-10T05:43:31.539Z,99.90
2023-04-10T05:46:08.559Z,99.90
2023-04-10T05:49:04.546Z,99.90
2023-04-10T05:51:50.544Z,99.90
2023-04-10T05:54:55.532Z,99.90
2023-04-10T05:57:51.507Z,99.90
2023-04-10T06:00:52.825Z,99.90
2023-04-10T06:03:34.768Z,99.90
2023-04-10T06:06:02.724Z,99.90
2023-04-10T06:08:30.715Z,99.90
2023-04-10T06:10:57.496Z,99.90
2023-04-10T06:13:24.669Z,99.90
2023-04-10T06:15:55.324Z,99.90
2023-04-10T06:18:23.253Z,99.90
2023-04-10T06:20:49.982Z,99.90
2023-04-10T06:23:16.959Z,99.90
2023-04-10T06:25:44.253Z,99.90
2023-04-10T06:28:11.247Z,99.90
2023-04-10T06:30:38.437Z,99.90
2023-04-10T06:33:07.136Z,99.90
2023-04-10T06:35:36.609Z,99.90
2023-04-10T06:38:04.309Z,99.90
2023-04-10T06:40:34.288Z,99.90
2023-04-10T06:43:01.333Z,99.90
2023-04-10T06:45:34.410Z,99.90
2023-04-10T06:48:01.322Z,99.90
2023-04-10T06:50:28.217Z,99.90
2023-04-10T06:52:56.346Z,99.90
2023-04-10T06:55:23.093Z,99.90
2023-04-10T06:57:49.851Z,99.90
2023-04-10T07:00:16.852Z,99.90
2023-04-10T07:02:43.638Z,99.90
2023-04-10T07:05:10.867Z,99.90
2023-04-10T07:07:37.612Z,99.90
2023-04-10T07:10:04.810Z,99.90
2023-04-10T07:12:31.554Z,99.90
2023-04-10T07:14:58.267Z,99.90
2023-04-10T07:17:25.366Z,99.90
2023-04-10T07:19:52.114Z,99.90
2023-04-10T07:22:18.840Z,99.90
2023-04-10T07:24:45.737Z,99.90
2023-04-10T07:27:12.905Z,99.90
2023-04-10T07:29:39.699Z,99.90
2023-04-10T07:32:06.764Z,99.90
2023-04-10T07:34:33.652Z,99.90
2023-04-10T07:37:00.391Z,99.90
2023-04-10T07:39:27.521Z,99.90
2023-04-10T07:41:55.250Z,99.90
2023-04-10T07:44:22.064Z,99.90
2023-04-10T07:46:48.992Z,99.90
2023-04-10T07:49:15.738Z,99.90
2023-04-10T07:51:42.477Z,99.80
2023-04-10T07:54:09.261Z,98.50
2023-04-10T07:56:36.277Z,99.10
2023-04-10T07:59:03.671Z,97.90
2023-04-10T08:01:30.464Z,99.40
2023-04-10T08:03:57.478Z,98.00
2023-04-10T08:06:24.569Z,96.50
2023-04-10T08:08:52.957Z,95.00
2023-04-10T08:11:35.293Z,94.90
2023-04-10T08:14:03.929Z,94.70
2023-04-10T08:16:33.127Z,94.50
2023-04-10T08:19:00.876Z,93.80
2023-04-10T08:21:29.147Z,93.70
2023-04-10T08:23:58.480Z,94.80
2023-04-10T08:26:26.629Z,91.50
2023-04-10T08:28:55.577Z,90.60
2023-04-10T08:31:24.043Z,91.80
2023-04-10T08:33:52.043Z,92.10
2023-04-10T08:36:20.356Z,92.20
2023-04-10T08:38:48.022Z,92.60
2023-04-10T08:41:18.977Z,92.70
2023-04-10T08:43:46.556Z,93.00
2023-04-10T08:46:16.589Z,91.00
2023-04-10T08:48:46.052Z,91.80
2023-04-10T08:51:20.584Z,94.60
2023-04-10T08:53:58.498Z,90.50
2023-04-10T08:56:26.058Z,90.90
2023-04-10T08:58:53.531Z,87.10
2023-04-10T09:01:21.493Z,86.80
2023-04-10T09:03:48.716Z,84.70
2023-04-10T09:06:15.648Z,84.50
2023-04-10T09:08:42.384Z,79.10
2023-04-10T09:11:09.182Z,80.70
2023-04-10T09:13:46.424Z,79.40
2023-04-10T09:16:14.243Z,80.10
2023-04-10T09:18:45.519Z,78.80
2023-04-10T09:21:17.393Z,78.00
2023-04-10T09:23:45.435Z,78.60
2023-04-10T09:26:42.732Z,76.90
2023-04-10T09:29:10.990Z,79.80
2023-04-10T09:31:38.633Z,80.70
2023-04-10T09:34:19.309Z,78.30
2023-04-10T09:36:55.347Z,78.90
2023-04-10T09:39:22.997Z,77.80
2023-04-10T09:41:55.480Z,75.50
2023-04-10T09:44:33.235Z,76.20
2023-04-10T09:47:18.506Z,78.70
2023-04-10T09:50:03.872Z,75.80
2023-04-10T09:52:38.192Z,71.40
2023-04-10T09:55:06.592Z,68.90
2023-04-10T09:57:35.346Z,73.50
2023-04-10T10:00:05.311Z,71.60
2023-04-10T10:02:39.093Z,70.40
2023-04-10T10:05:07.235Z,71.30
2023-04-10T10:07:34.874Z,71.10
2023-04-10T10:10:03.533Z,69.40
2023-04-10T10:12:44.025Z,69.30
2023-04-10T10:15:17.049Z,68.10
2023-04-10T10:17:46.546Z,68.90
2023-04-10T10:20:17.767Z,64.00
2023-04-10T10:22:45.968Z,65.60
2023-04-10T10:25:13.404Z,67.20
2023-04-10T10:27:41.595Z,63.00
2023-04-10T10:30:27.949Z,64.10
2023-04-10T10:32:56.467Z,62.40
2023-04-10T10:35:25.552Z,63.70
2023-04-10T10:37:55.133Z,60.60
2023-04-10T10:40:30.189Z,62.40
2023-04-10T10:43:13.508Z,63.20
2023-04-10T10:46:03.810Z,65.20
2023-04-10T10:48:30.572Z,58.70
2023-04-10T10:50:59.377Z,58.40
2023-04-10T10:53:32.960Z,58.20
2023-04-10T10:56:00.197Z,59.30
2023-04-10T10:58:50.628Z,58.00
2023-04-10T11:01:18.229Z,59.00
2023-04-10T11:03:45.506Z,59.50
2023-04-10T11:06:15.404Z,59.40
2023-04-10T11:08:45.793Z,55.30
2023-04-10T11:11:27.229Z,56.00
2023-04-10T11:13:56.648Z,56.80
2023-04-10T11:16:47.182Z,56.90
2023-04-10T11:19:16.120Z,58.50
2023-04-10T11:22:07.485Z,56.10
2023-04-10T11:24:53.295Z,56.50
2023-04-10T11:27:42.237Z,56.30
2023-04-10T11:30:32.293Z,54.90
2023-04-10T11:33:00.749Z,54.90
2023-04-10T11:35:28.811Z,54.70
2023-04-10T11:38:11.940Z,55.00
2023-04-10T11:40:57.328Z,55.20
2023-04-10T11:43:24.161Z,55.00
2023-04-10T11:45:51.046Z,56.40
2023-04-10T11:48:17.806Z,54.90
2023-04-10T11:50:44.586Z,54.20
2023-04-10T11:53:21.696Z,55.90
2023-04-10T11:55:48.551Z,55.60
2023-04-10T11:58:25.547Z,55.80
2023-04-10T12:01:05.117Z,56.90
2023-04-10T12:03:39.848Z,57.70
2023-04-10T12:06:09.309Z,55.90
2023-04-10T12:08:39.187Z,54.50
2023-04-10T12:11:06.517Z,55.70
2023-04-10T12:13:33.589Z,53.70
2023-04-10T12:16:03.438Z,52.70
2023-04-10T12:18:31.047Z,54.50
2023-04-10T12:20:59.316Z,55.10
2023-04-10T12:23:27.135Z,54.60
2023-04-10T12:26:06.605Z,54.50
2023-04-10T12:28:33.436Z,53.70
2023-04-10T12:31:00.234Z,53.90
2023-04-10T12:33:27.046Z,54.60
2023-04-10T12:35:54.319Z,53.60
2023-04-10T12:38:42.034Z,53.30
2023-04-10T12:41:11.177Z,52.40
2023-04-10T12:43:40.660Z,52.20
2023-04-10T12:46:09.611Z,52.00
2023-04-10T12:48:36.641Z,51.80
2023-04-10T12:51:04.232Z,55.30
2023-04-10T12:53:31.218Z,52.60
2023-04-10T12:56:03.913Z,53.50
2023-04-10T12:58:31.661Z,55.40
2023-04-10T13:01:03.620Z,53.10
2023-04-10T13:03:31.066Z,52.80
2023-04-10T13:05:57.905Z,54.20
2023-04-10T13:08:24.934Z,53.20
2023-04-10T13:10:52.019Z,52.80
2023-04-10T13:13:18.832Z,53.90
2023-04-10T13:15:45.605Z,53.90
2023-04-10T13:18:12.529Z,51.80
2023-04-10T13:20:41.161Z,52.00
2023-04-10T13:23:08.512Z,52.60
2023-04-10T13:25:39.865Z,52.30
2023-04-10T13:28:10.983Z,52.80
2023-04-10T13:30:40.592Z,51.60
2023-04-10T13:33:08.844Z,50.80
2023-04-10T13:35:35.869Z,53.00
2023-04-10T13:38:02.765Z,52.90
2023-04-10T13:40:29.601Z,53.00
2023-04-10T13:42:56.407Z,52.70
2023-04-10T13:45:23.266Z,52.50
2023-04-10T13:47:50.348Z,52.10
2023-04-10T13:50:17.429Z,52.60
2023-04-10T13:52:44.161Z,53.20
2023-04-10T13:55:10.916Z,53.50
2023-04-10T13:57:38.489Z,54.60
2023-04-10T14:00:06.861Z,53.20
2023-04-10T14:02:39.634Z,53.50
2023-04-10T14:05:06.891Z,53.20
2023-04-10T14:07:33.601Z,54.00
2023-04-10T14:10:01.368Z,54.20
2023-04-10T14:12:28.093Z,54.40
2023-04-10T14:14:56.498Z,53.00
2023-04-10T14:17:23.509Z,54.20
2023-04-10T14:19:51.675Z,53.80
2023-04-10T14:22:18.604Z,54.80
2023-04-10T14:24:45.582Z,55.10
2023-04-10T14:27:13.313Z,54.30
2023-04-10T14:29:50.602Z,54.10
2023-04-10T14:32:21.310Z,53.50
2023-04-10T14:34:48.091Z,54.50
2023-04-10T14:37:15.436Z,53.80
2023-04-10T14:39:42.447Z,54.90
2023-04-10T14:42:10.571Z,53.70
2023-04-10T14:44:37.347Z,53.50
2023-04-10T14:47:06.412Z,54.10
2023-04-10T14:49:33.396Z,55.30
2023-04-10T14:52:00.150Z,55.80
2023-04-10T14:54:26.981Z,56.10
2023-04-10T14:56:53.706Z,56.20
2023-04-10T14:59:20.431Z,55.90
2023-04-10T15:01:47.551Z,54.60
2023-04-10T15:04:14.463Z,55.40
2023-04-10T15:06:41.717Z,56.80
2023-04-10T15:09:08.461Z,55.40
2023-04-10T15:11:35.177Z,57.20
2023-04-10T15:14:02.331Z,58.20
2023-04-10T15:16:31.939Z,58.90
2023-04-10T15:18:58.728Z,57.80
2023-04-10T15:21:26.909Z,56.90
2023-04-10T15:23:53.985Z,56.70
2023-04-10T15:26:21.318Z,55.80
2023-04-10T15:28:48.202Z,57.10
2023-04-10T15:31:15.804Z,58.90
2023-04-10T15:33:42.786Z,58.70
2023-04-10T15:36:09.836Z,58.90
2023-04-10T15:38:37.034Z,56.90
2023-04-10T15:41:13.440Z,57.60
2023-04-10T15:43:40.303Z,58.30
2023-04-10T15:46:07.135Z,58.30
2023-04-10T15:48:34.095Z,58.70
2023-04-10T15:51:06.039Z,58.80
2023-04-10T15:53:33.969Z,57.80
2023-04-10T15:56:00.735Z,58.30
2023-04-10T15:58:27.565Z,59.00
2023-04-10T16:00:54.519Z,59.00
2023-04-10T16:03:21.384Z,58.70
2023-04-10T16:05:48.220Z,58.60
2023-04-10T16:08:15.048Z,59.00
2023-04-10T16:10:41.795Z,58.90
2023-04-10T16:13:08.535Z,59.60
2023-04-10T16:15:36.879Z,61.30
2023-04-10T16:18:04.803Z,62.40
2023-04-10T16:20:32.082Z,62.40
2023-04-10T16:22:59.318Z,63.20
2023-04-10T16:25:27.361Z,62.90
2023-04-10T16:27:55.410Z,61.20
2023-04-10T16:30:22.637Z,58.60
2023-04-10T16:32:49.437Z,58.70
2023-04-10T16:35:18.105Z,58.80
2023-04-10T16:37:46.154Z,58.60
2023-04-10T16:40:13.087Z,59.20
2023-04-10T16:42:40.235Z,59.50
2023-04-10T16:45:08.404Z,59.10
2023-04-10T16:47:35.514Z,59.80
2023-04-10T16:50:02.356Z,60.50
2023-04-10T16:52:29.076Z,60.10
2023-04-10T16:54:55.806Z,61.10
2023-04-10T16:57:22.551Z,60.60
2023-04-10T16:59:49.260Z,60.70
2023-04-10T17:02:16.057Z,61.80
2023-04-10T17:04:42.926Z,61.60
2023-04-10T17:07:09.875Z,61.50
2023-04-10T17:09:37.803Z,62.20
2023-04-10T17:12:04.738Z,63.00
2023-04-10T17:14:31.579Z,63.40
2023-04-10T17:16:58.355Z,63.40
2023-04-10T17:19:25.230Z,64.10
2023-04-10T17:21:52.255Z,63.80
2023-04-10T17:24:19.048Z,63.70
2023-04-10T17:26:45.897Z,63.60
2023-04-10T17:29:12.622Z,63.20
2023-04-10T17:31:39.434Z,64.60
2023-04-10T17:34:06.240Z,66.90
2023-04-10T17:36:33.179Z,68.00
2023-04-10T17:39:00.759Z,68.80
2023-04-10T17:41:27.757Z,69.70
2023-04-10T17:43:54.568Z,70.40
2023-04-10T17:46:21.580Z,70.90
2023-04-10T17:48:48.331Z,70.30
2023-04-10T17:51:15.273Z,70.90
2023-04-10T17:53:42.065Z,71.10
2023-04-10T17:56:16.614Z,71.10
2023-04-10T17:58:43.372Z,71.50
2023-04-10T18:01:10.163Z,72.20
2023-04-10T18:03:37.013Z,72.70
2023-04-10T18:06:04.125Z,72.80
2023-04-10T18:08:30.827Z,72.90
2023-04-10T18:10:58.094Z,74.00
2023-04-10T18:13:24.920Z,74.10
2023-04-10T18:15:51.634Z,74.50
2023-04-10T18:18:18.369Z,74.10
2023-04-10T18:20:45.131Z,73.70
2023-04-10T18:23:11.950Z,73.70
2023-04-10T18:25:38.703Z,74.00
2023-04-10T18:28:14.463Z,73.80
2023-04-10T18:30:42.795Z,73.80
2023-04-10T18:33:11.496Z,74.10
2023-04-10T18:35:38.688Z,75.00
2023-04-10T18:38:05.579Z,74.90
2023-04-10T18:40:34.533Z,75.00
2023-04-10T18:43:01.321Z,74.70
2023-04-10T18:45:28.029Z,74.60
2023-04-10T18:47:54.787Z,74.30
2023-04-10T18:50:21.580Z,74.70
2023-04-10T18:52:48.285Z,74.70
2023-04-10T18:55:15.164Z,75.00
2023-04-10T18:57:41.981Z,74.90
2023-04-10T19:00:11.335Z,74.90
2023-04-10T19:02:38.338Z,75.50
2023-04-10T19:05:05.938Z,76.00
2023-04-10T19:07:33.203Z,76.20
2023-04-10T19:09:59.998Z,76.30
2023-04-10T19:12:26.757Z,76.90
2023-04-10T19:14:53.470Z,77.20
2023-04-10T19:17:21.798Z,77.20
2023-04-10T19:19:48.751Z,78.10
2023-04-10T19:22:16.390Z,78.50
2023-04-10T19:24:43.140Z,78.40
2023-04-10T19:27:09.962Z,78.90
2023-04-10T19:29:36.994Z,79.40
2023-04-10T19:32:04.330Z,79.70
2023-04-10T19:34:31.144Z,80.20
2023-04-10T19:36:59.366Z,81.00
2023-04-10T19:39:26.091Z,81.20
2023-04-10T19:41:52.816Z,81.80
2023-04-10T19:44:19.617Z,82.00
2023-04-10T19:46:48.220Z,81.30
2023-04-10T19:49:14.956Z,81.20
2023-04-10T19:51:41.728Z,80.40
2023-04-10T19:54:08.470Z,79.60
2023-04-10T19:56:37.764Z,80.00
2023-04-10T19:59:04.497Z,80.70
2023-04-10T20:01:31.232Z,81.60
2023-04-10T20:03:58.105Z,82.20
2023-04-10T20:06:25.604Z,82.40
2023-04-10T20:08:52.733Z,82.40
2023-04-10T20:11:19.696Z,82.90
2023-04-10T20:13:46.719Z,82.60
2023-04-10T20:16:13.499Z,82.80
2023-04-10T20:18:41.222Z,82.70
2023-04-10T20:21:09.068Z,83.30
2023-04-10T20:23:37.296Z,82.70
2023-04-10T20:26:04.138Z,82.70
2023-04-10T20:28:31.729Z,82.60
2023-04-10T20:30:58.479Z,82.80
2023-04-10T20:33:25.200Z,83.00
2023-04-10T20:35:53.320Z,83.20
2023-04-10T20:38:20.103Z,83.30
2023-04-10T20:40:46.804Z,83.20
2023-04-10T20:43:14.141Z,83.90
2023-04-10T20:45:41.628Z,84.40
2023-04-10T20:48:09.315Z,85.20
2023-04-10T20:50:37.087Z,85.30
2023-04-10T20:53:03.997Z,85.20
2023-04-10T20:55:30.799Z,85.20
2023-04-10T20:57:58.691Z,85.70
2023-04-10T21:00:25.504Z,85.90
2023-04-10T21:02:52.319Z,86.80
2023-04-10T21:05:19.240Z,86.70
2023-04-10T21:07:45.966Z,87.00
2023-04-10T21:10:12.698Z,87.20
2023-04-10T21:12:39.455Z,87.20
2023-04-10T21:15:06.751Z,87.30
2023-04-10T21:17:34.687Z,87.60
2023-04-10T21:20:01.602Z,87.80
2023-04-10T21:22:29.347Z,87.80
2023-04-10T21:24:56.440Z,88.30
2023-04-10T21:27:23.187Z,87.80
2023-04-10T21:29:49.989Z,87.90
2023-04-10T21:32:16.723Z,88.10
2023-04-10T21:34:43.488Z,87.80
2023-04-10T21:37:10.343Z,88.10
2023-04-10T21:39:40.612Z,88.50
2023-04-10T21:42:07.562Z,88.60
2023-04-10T21:44:34.362Z,88.40
2023-04-10T21:47:01.340Z,88.50
2023-04-10T21:49:28.264Z,88.90
2023-04-10T21:51:55.262Z,90.30
2023-04-10T21:54:22.027Z,90.30
2023-04-10T21:56:48.752Z,90.30
2023-04-10T21:59:15.631Z,90.30
2023-04-10T22:01:43.315Z,90.50
2023-04-10T22:04:10.300Z,90.70
2023-04-10T22:06:37.340Z,90.70
2023-04-10T22:09:04.209Z,90.80
2023-04-10T22:11:30.952Z,91.00
2023-04-10T22:14:00.228Z,91.00
2023-04-10T22:16:32.620Z,91.00
2023-04-10T22:19:00.013Z,91.20
2023-04-10T22:21:27.447Z,91.40
2023-04-10T22:23:54.270Z,91.40
2023-04-10T22:26:21.211Z,91.40
2023-04-10T22:28:48.077Z,91.50
2023-04-10T22:31:19.851Z,91.80
2023-04-10T22:33:46.649Z,92.10
2023-04-10T22:36:14.145Z,92.30
2023-04-10T22:38:40.997Z,92.50
2023-04-10T22:41:07.745Z,92.60
2023-04-10T22:43:35.231Z,92.80
2023-04-10T22:46:02.178Z,93.00
2023-04-10T22:48:28.961Z,93.20
2023-04-10T22:50:55.782Z,93.20
2023-04-10T22:53:22.542Z,93.30
2023-04-10T22:55:49.341Z,93.40
2023-04-10T22:58:16.101Z,93.70
2023-04-10T23:00:42.858Z,94.00
2023-04-10T23:03:09.841Z,94.30
2023-04-10T23:05:36.706Z,94.60
2023-04-10T23:08:03.436Z,94.70
2023-04-10T23:10:30.256Z,95.10
2023-04-10T23:12:56.981Z,95.30
2023-04-10T23:15:23.851Z,95.50
2023-04-10T23:17:50.629Z,95.70
2023-04-10T23:20:17.619Z,95.70
2023-04-10T23:22:44.324Z,95.50
2023-04-10T23:25:11.011Z,95.50
2023-04-10T23:27:37.796Z,95.30
2023-04-10T23:30:05.016Z,95.50
2023-04-10T23:32:31.771Z,95.60
2023-04-10T23:34:58.576Z,95.70
2023-04-10T23:37:25.846Z,95.70
2023-04-10T23:39:52.545Z,95.70
2023-04-10T23:42:19.291Z,95.70
2023-04-10T23:44:46.033Z,95.90
2023-04-10T23:47:12.968Z,95.90
2023-04-10T23:49:39.721Z,96.00
2023-04-10T23:52:06.475Z,96.60
2023-04-10T23:54:33.273Z,96.80
2023-04-10T23:57:00.270Z,97.00
2023-04-10T23:59:26.998Z,97.10
